Dallas, GA (30157)

4:14 PM EST on February 28, 2015 (GMT -0500)
Hwy 61 @ Dallas-Nebo Rd | Change Station
CLOSE
Current Station
Personal Weather Station
Location: Dallas, GA
Elevation: 1080 ft
Nearby Weather Stations

Elev 1080 ft 33.85 °N, 84.85 °W | Updated 4 minutes ago

Clear
Clear
54.3 °F
Feels Like 54.3 °F
N
3.0
Wind Variable Wind from NE
Gusts 4.0 mph

Today
High -- | Low -- °F
--% Chance of Precip.
Yesterday
High -- | Low -- °F
Precip. -- in
7:09 AM 6:34 PM
Waxing Gibbous, 80% visible
Pressure 30.44 in
Visibility 10.0 miles
Clouds Clear
Dew Point 28 °F
Humidity 36%
Rainfall 0.00 in
Snow Depth Not available.
UV 3 out of 12
Pollen 7.80 out of 12
Air Quality Not available.
Flu Activity Not available.
METAR KPUJ 282055Z AUTO 12011KT 10SM CLR 13/01 A3044 RMK AO2

More Conditions Fewer Conditions

Pressure 30.44 in
Visibility 10.0 miles
Clouds Clear
Dew Point 28 °F
Humidity 36%
Rainfall 0.00 in
Snow Depth Not available.
UV 3 out of 12
Pollen 7.80 out of 12
Air Quality Not available.
Flu Activity Not available.
METAR KPUJ 282055Z AUTO 12011KT 10SM CLR 13/01 A3044 RMK AO2

More Conditions Fewer Conditions

10-Day Weather Forecast

Almanac

Astronomy

Feb. 28, 2015 Rise Set
Actual Time
Civil Twilight
Nautical Twilight
Astronomical Twilight
Moon
Length of Visible Light
Length of Day
Tomorrow will be .
, % of the Moon is Illuminated

Today's Extremes

State Highs State Lows

Community

WunderPhotos

Upload Photos

1,801,150 photos uploaded!

WunderBlogs® & News

Nearby

Air Quality

  Air Quality AQ Index Pollutant
Not available.

Snow Depth

Station Depth Elevation

Earthquake Activity

City Distance Mag. Time & Date
Minimum magnitude displayed is 2.5.

Coastal Water Temperatures

Place Temperature

Nearby Weather Stations